Time;durP1;ratioP1;P1;durP2;ratioP2;P2;SDS_P1;SDS_P2;PMS_P1;PMS_P2;Temp;Humidity;BMP_temperature;BMP_pressure;BME280_temperature;BME280_humidity;BME280_pressure;Samples;Min_cycle;Max_cycle;Signal;HPM_P1;HPM_P2
2023/06/18 00:00:00;;;;;;;0.80;0.80;;;;;;;13.47;100.00;90661.72;5013805;28;20460;-67
2023/06/18 00:02:26;;;;;;;0.80;0.80;;;;;;;13.38;100.00;90653.03;5013488;28;20116;-68
2023/06/18 00:04:51;;;;;;;0.60;0.60;;;;;;;13.34;100.00;90656.69;5013593;28;20022;-68
2023/06/18 00:07:17;;;;;;;0.80;0.80;;;;;;;13.35;100.00;90660.94;5013523;28;20067;-68
2023/06/18 00:09:42;;;;;;;0.82;0.82;;;;;;;13.40;100.00;90672.16;5013427;28;20026;-68
2023/06/18 00:12:08;;;;;;;1.45;1.20;;;;;;;13.29;100.00;90656.91;5013442;28;20080;-68
2023/06/18 00:14:34;;;;;;;1.23;1.13;;;;;;;13.29;100.00;90652.34;5013451;28;20026;-67
2023/06/18 00:16:59;;;;;;;1.40;1.08;;;;;;;13.17;100.00;90660.31;5013593;28;20033;-67
2023/06/18 00:19:24;;;;;;;2.22;1.58;;;;;;;13.18;100.00;90662.66;5013172;28;20022;-67
2023/06/18 00:21:50;;;;;;;2.95;1.30;;;;;;;13.17;100.00;90663.75;5013235;28;20104;-68
2023/06/18 00:24:15;;;;;;;1.23;1.23;;;;;;;13.10;100.00;90652.84;5013154;28;20029;-67
2023/06/18 00:26:41;;;;;;;2.95;1.25;;;;;;;13.04;100.00;90648.81;5013341;28;20117;-67
2023/06/18 00:29:06;;;;;;;2.88;1.48;;;;;;;13.12;100.00;90649.84;5013126;28;20033;-67
2023/06/18 00:31:34;;;;;;;0.80;0.80;;;;;;;13.08;100.00;90654.25;5013089;28;20108;-67
2023/06/18 00:34:06;;;;;;;1.13;1.13;;;;;;;13.09;100.00;90655.81;5012958;28;20026;-68
2023/06/18 00:36:33;;;;;;;0.80;0.80;;;;;;;13.07;100.00;90652.69;5012990;28;20066;-68
2023/06/18 00:39:03;;;;;;;1.58;1.27;;;;;;;13.09;100.00;90661.16;5012869;28;20033;-68
2023/06/18 00:41:30;;;;;;;0.82;0.82;;;;;;;13.15;100.00;90654.50;5012800;28;20113;-67
2023/06/18 00:43:57;;;;;;;1.65;1.50;;;;;;;13.16;100.00;90653.41;5012873;28;20040;-68
2023/06/18 00:46:25;;;;;;;1.05;0.90;;;;;;;13.15;100.00;90657.19;5012777;28;20389;-68
2023/06/18 00:48:51;;;;;;;0.85;0.85;;;;;;;13.06;100.00;90649.25;5012666;28;20033;-68
2023/06/18 00:51:17;;;;;;;1.30;1.13;;;;;;;13.08;100.00;90659.59;5012770;28;20026;-68
2023/06/18 00:53:43;;;;;;;2.75;1.05;;;;;;;13.07;100.00;90663.38;5012697;28;20447;-67
2023/06/18 00:56:09;;;;;;;0.90;0.90;;;;;;;13.11;100.00;90658.97;5012620;28;20105;-67
2023/06/18 00:58:35;;;;;;;0.95;0.95;;;;;;;13.16;100.00;90650.72;5012397;28;20030;-68
2023/06/18 01:01:01;;;;;;;1.98;0.93;;;;;;;13.17;100.00;90657.63;5012486;28;20041;-68
2023/06/18 01:03:28;;;;;;;1.30;1.08;;;;;;;13.22;100.00;90662.00;5012275;28;20061;-69
2023/06/18 01:05:58;;;;;;;1.05;1.05;;;;;;;13.21;100.00;90653.22;5012505;28;20052;-67
2023/06/18 01:08:24;;;;;;;0.85;0.85;;;;;;;13.19;100.00;90656.22;5012091;28;20044;-67
2023/06/18 01:11:04;;;;;;;1.13;1.13;;;;;;;13.25;100.00;90662.13;5012435;28;20017;-68
2023/06/18 01:13:40;;;;;;;1.00;0.98;;;;;;;13.28;100.00;90669.50;5012343;28;20083;-68
2023/06/18 01:16:08;;;;;;;0.70;0.70;;;;;;;13.35;100.00;90663.59;5012533;28;20061;-68
2023/06/18 01:18:45;;;;;;;3.47;2.50;;;;;;;13.31;100.00;90660.81;5012147;28;20546;-68
2023/06/18 01:21:13;;;;;;;0.85;0.85;;;;;;;13.31;100.00;90663.47;5012121;28;20472;-67
2023/06/18 01:23:52;;;;;;;1.13;1.13;;;;;;;13.31;100.00;90668.81;5012161;28;20029;-67
2023/06/18 01:26:21;;;;;;;0.70;0.70;;;;;;;13.32;100.00;90673.06;5012370;28;20050;-67
2023/06/18 01:28:53;;;;;;;0.80;0.80;;;;;;;13.28;100.00;90664.16;5011950;28;20491;-67
2023/06/18 01:31:22;;;;;;;0.85;0.85;;;;;;;13.34;100.00;90670.84;5012326;28;20033;-67
2023/06/18 01:33:53;;;;;;;1.05;1.05;;;;;;;13.35;100.00;90668.94;5011939;28;20033;-68
2023/06/18 01:36:34;;;;;;;2.30;1.33;;;;;;;13.30;100.00;90663.81;5011942;28;20105;-67
2023/06/18 01:39:07;;;;;;;1.17;1.17;;;;;;;13.23;100.00;90655.53;5012034;28;20052;-66
2023/06/18 01:41:36;;;;;;;1.23;1.13;;;;;;;13.23;100.00;90666.22;5011861;28;20092;-67
2023/06/18 01:44:08;;;;;;;0.70;0.70;;;;;;;13.20;100.00;90665.00;5011827;28;20067;-67
2023/06/18 01:46:34;;;;;;;1.00;1.00;;;;;;;13.24;100.00;90665.91;5019157;28;20028;-68
2023/06/18 01:49:04;;;;;;;1.00;1.00;;;;;;;13.14;100.00;90663.63;5021050;28;20412;-68
2023/06/18 01:51:31;;;;;;;1.27;1.17;;;;;;;13.16;100.00;90669.44;5035099;28;20113;-68
2023/06/18 01:53:59;;;;;;;2.03;1.48;;;;;;;13.22;100.00;90665.44;5021163;28;20099;-68
2023/06/18 01:56:28;;;;;;;0.70;0.70;;;;;;;13.28;100.00;90672.16;5022100;28;20088;-68
2023/06/18 01:58:56;;;;;;;0.90;0.90;;;;;;;13.21;100.00;90669.25;5017905;28;20034;-69
2023/06/18 02:01:22;;;;;;;0.95;0.95;;;;;;;13.28;100.00;90674.84;5020024;28;20120;-69
2023/06/18 02:03:47;;;;;;;0.80;0.80;;;;;;;13.29;100.00;90671.06;5022035;28;20104;-69
2023/06/18 02:06:13;;;;;;;1.25;1.25;;;;;;;13.33;100.00;90671.94;5020199;28;20109;-69
2023/06/18 02:08:39;;;;;;;1.13;1.13;;;;;;;13.41;100.00;90671.09;5020565;28;20021;-69
2023/06/18 02:11:04;;;;;;;1.48;1.38;;;;;;;13.29;100.00;90676.41;5021667;28;20036;-69
2023/06/18 02:13:30;;;;;;;0.90;0.90;;;;;;;13.27;100.00;90657.25;5034872;28;20510;-69
2023/06/18 02:15:55;;;;;;;0.90;0.90;;;;;;;13.29;100.00;90670.28;5021138;28;20017;-69
2023/06/18 02:18:21;;;;;;;1.85;1.45;;;;;;;13.30;100.00;90677.16;5020981;28;20756;-69
2023/06/18 02:20:46;;;;;;;1.27;1.05;;;;;;;13.34;100.00;90675.41;5022616;28;20049;-69
2023/06/18 02:23:12;;;;;;;3.45;1.83;;;;;;;13.33;100.00;90681.84;5025895;28;20449;-69
2023/06/18 02:25:37;;;;;;;0.90;0.90;;;;;;;13.31;100.00;90682.19;5024478;28;20014;-69
2023/06/18 02:28:04;;;;;;;0.77;0.77;;;;;;;13.32;100.00;90673.06;5024189;28;20029;-68
2023/06/18 02:30:30;;;;;;;1.00;1.00;;;;;;;13.37;100.00;90677.41;5025554;28;20423;-69
2023/06/18 02:33:00;;;;;;;0.90;0.90;;;;;;;13.39;100.00;90681.28;5024235;28;20500;-69
2023/06/18 02:35:27;;;;;;;0.90;0.90;;;;;;;13.29;100.00;90687.06;5023430;28;20034;-69
2023/06/18 02:37:53;;;;;;;0.60;0.60;;;;;;;13.40;100.00;90682.06;5025303;28;20025;-69
2023/06/18 02:40:19;;;;;;;1.10;1.10;;;;;;;13.45;100.00;90685.34;5024358;28;20030;-69
2023/06/18 02:42:47;;;;;;;1.55;1.25;;;;;;;13.49;100.00;90690.78;5023675;28;20399;-69
2023/06/18 02:45:19;;;;;;;0.80;0.80;;;;;;;13.58;100.00;90688.81;5021207;28;20515;-69
2023/06/18 02:47:45;;;;;;;1.45;1.35;;;;;;;13.48;100.00;90691.91;5023601;28;20030;-69
2023/06/18 02:50:11;;;;;;;0.90;0.90;;;;;;;13.54;100.00;90700.47;5025044;28;20491;-69
2023/06/18 02:52:37;;;;;;;0.70;0.70;;;;;;;13.66;100.00;90692.47;5024066;28;20022;-69
2023/06/18 02:55:04;;;;;;;1.40;1.30;;;;;;;13.65;100.00;90682.91;5023874;28;20025;-69
2023/06/18 02:57:29;;;;;;;0.93;0.93;;;;;;;13.67;100.00;90683.34;5025104;28;20021;-69
2023/06/18 02:59:55;;;;;;;1.98;1.38;;;;;;;13.74;100.00;90696.97;5023683;28;20029;-69
2023/06/18 03:02:20;;;;;;;1.40;0.95;;;;;;;13.75;100.00;90701.97;5023803;28;20048;-69
2023/06/18 03:04:45;;;;;;;0.80;0.80;;;;;;;13.74;100.00;90702.31;5024961;28;20534;-69
2023/06/18 03:07:11;;;;;;;1.15;1.15;;;;;;;13.67;100.00;90694.03;5023251;28;20025;-70
2023/06/18 03:09:36;;;;;;;8.10;2.35;;;;;;;13.60;100.00;90696.50;5024156;28;20491;-69
2023/06/18 03:12:02;;;;;;;1.38;1.27;;;;;;;13.69;100.00;90699.84;5024364;28;20014;-69
2023/06/18 03:14:27;;;;;;;1.45;1.35;;;;;;;13.66;100.00;90703.19;5022683;28;20029;-69
2023/06/18 03:16:52;;;;;;;2.03;1.48;;;;;;;13.56;100.00;90701.69;5023352;28;20160;-68
2023/06/18 03:19:18;;;;;;;0.95;0.95;;;;;;;13.57;100.00;90700.63;5023581;28;20496;-69
2023/06/18 03:21:43;;;;;;;1.05;0.95;;;;;;;13.66;100.00;90700.50;5021500;28;20035;-66
2023/06/18 03:24:10;;;;;;;1.40;1.30;;;;;;;13.56;100.00;90707.03;5024464;28;20029;-67
2023/06/18 03:26:36;;;;;;;0.70;0.70;;;;;;;13.43;100.00;90703.59;5022939;28;20022;-66
2023/06/18 03:29:04;;;;;;;10.25;1.50;;;;;;;13.49;100.00;90710.28;5022967;28;20032;-68
2023/06/18 03:31:32;;;;;;;1.00;0.98;;;;;;;13.55;100.00;90716.19;5024635;28;20052;-68
2023/06/18 03:34:01;;;;;;;1.48;1.27;;;;;;;13.67;100.00;90713.53;5023582;28;20033;-68
2023/06/18 03:36:30;;;;;;;7.63;0.90;;;;;;;13.72;100.00;90707.97;5022307;28;20148;-68
2023/06/18 03:38:56;;;;;;;0.82;0.82;;;;;;;13.63;100.00;90709.97;5023776;28;20079;-68
2023/06/18 03:41:22;;;;;;;1.60;1.50;;;;;;;13.60;100.00;90720.56;5023385;28;20044;-66
2023/06/18 03:43:47;;;;;;;1.00;1.00;;;;;;;13.60;100.00;90717.88;5022133;28;20084;-68
2023/06/18 03:46:13;;;;;;;1.60;1.50;;;;;;;13.61;100.00;90711.41;5024112;28;20025;-68
2023/06/18 03:48:39;;;;;;;1.75;1.52;;;;;;;13.73;100.00;90720.25;5023040;28;20090;-68
2023/06/18 03:51:05;;;;;;;1.88;1.77;;;;;;;13.69;100.00;90713.19;5022744;28;20026;-68
2023/06/18 03:53:31;;;;;;;1.20;1.15;;;;;;;13.67;100.00;90718.88;5024126;28;20400;-68
2023/06/18 03:55:56;;;;;;;0.85;0.85;;;;;;;13.80;100.00;90725.03;5022752;28;20018;-69
2023/06/18 03:58:22;;;;;;;1.15;1.15;;;;;;;13.86;100.00;90714.88;5022618;28;20036;-68
2023/06/18 04:00:47;;;;;;;3.53;3.22;;;;;;;13.83;100.00;90724.34;5023923;28;20594;-69
2023/06/18 04:03:13;;;;;;;6.70;6.28;;;;;;;13.83;100.00;90721.69;5020580;28;20037;-69
2023/06/18 04:05:38;;;;;;;6.78;3.20;;;;;;;13.96;100.00;90723.25;5023019;28;20018;-69
2023/06/18 04:08:04;;;;;;;1.63;1.52;;;;;;;13.93;100.00;90721.25;5023535;28;20029;-68
2023/06/18 04:10:30;;;;;;;2.42;2.22;;;;;;;13.95;100.00;90724.38;5021693;28;20033;-68
2023/06/18 04:12:55;;;;;;;1.25;1.15;;;;;;;13.94;100.00;90722.81;5023289;28;20036;-68
2023/06/18 04:15:21;;;;;;;4.05;1.05;;;;;;;13.93;100.00;90713.25;5022937;28;20018;-69
2023/06/18 04:17:46;;;;;;;1.67;1.58;;;;;;;13.83;100.00;90726.25;5020178;28;20030;-68
2023/06/18 04:20:12;;;;;;;1.67;1.58;;;;;;;13.88;100.00;90728.69;5023399;28;20029;-69
2023/06/18 04:22:37;;;;;;;1.25;1.25;;;;;;;13.84;100.00;90733.16;5020999;28;20029;-69
2023/06/18 04:25:03;;;;;;;1.55;1.45;;;;;;;13.87;100.00;90730.59;5022152;28;20030;-69
2023/06/18 04:27:28;;;;;;;0.80;0.80;;;;;;;13.77;100.00;90731.06;5022132;28;20527;-67
2023/06/18 04:29:53;;;;;;;0.95;0.95;;;;;;;13.66;100.00;90732.59;5021382;28;20036;-68
2023/06/18 04:32:19;;;;;;;3.55;1.60;;;;;;;13.62;100.00;90737.81;5024139;28;20104;-68
2023/06/18 04:34:44;;;;;;;3.33;1.27;;;;;;;13.63;100.00;90735.91;5032888;28;20028;-68
2023/06/18 04:37:10;;;;;;;0.93;0.82;;;;;;;13.64;100.00;90740.94;5032685;28;20498;-68
2023/06/18 04:39:35;;;;;;;1.10;1.02;;;;;;;13.58;100.00;90736.94;5032844;28;20111;-68
2023/06/18 04:42:01;;;;;;;1.10;1.10;;;;;;;13.55;100.00;90742.91;5032225;28;20823;-68
2023/06/18 04:44:26;;;;;;;0.80;0.80;;;;;;;13.60;100.00;90748.06;5032540;28;20064;-68
2023/06/18 04:46:51;;;;;;;1.75;1.65;;;;;;;13.70;100.00;90752.19;5032564;28;20124;-68
2023/06/18 04:49:17;;;;;;;1.77;1.20;;;;;;;13.75;100.00;90757.34;5032440;28;20022;-68
2023/06/18 04:51:43;;;;;;;2.05;1.33;;;;;;;13.78;100.00;90751.31;5020502;28;20080;-68
2023/06/18 04:54:09;;;;;;;1.20;1.10;;;;;;;13.76;100.00;90758.91;5012903;28;20030;-68
2023/06/18 04:56:35;;;;;;;1.88;1.20;;;;;;;13.77;100.00;90755.13;5012506;28;20107;-68
2023/06/18 04:59:00;;;;;;;1.02;1.02;;;;;;;13.82;100.00;90759.44;5012443;28;20105;-68
2023/06/18 05:01:25;;;;;;;1.73;1.63;;;;;;;13.71;100.00;90761.75;5012311;28;20037;-68
2023/06/18 05:03:51;;;;;;;4.22;1.95;;;;;;;13.61;100.00;90754.97;5012495;28;20033;-68
2023/06/18 05:06:16;;;;;;;3.38;2.80;;;;;;;13.57;100.00;90755.94;5012451;28;20492;-68
2023/06/18 05:08:42;;;;;;;2.83;1.70;;;;;;;13.60;100.00;90766.00;5012528;28;20058;-67
2023/06/18 05:11:07;;;;;;;1.90;1.80;;;;;;;13.56;100.00;90771.19;5012350;28;20046;-68
2023/06/18 05:13:33;;;;;;;5.55;1.73;;;;;;;13.59;100.00;90769.78;5011012;28;20037;-68
2023/06/18 05:16:00;;;;;;;1.17;1.17;;;;;;;13.60;100.00;90766.78;5012295;28;20048;-68
2023/06/18 05:18:25;;;;;;;7.97;2.28;;;;;;;13.75;100.00;90770.72;5012166;28;20034;-68
2023/06/18 05:20:50;;;;;;;1.90;1.33;;;;;;;13.92;100.00;90772.41;5012088;28;20455;-68
2023/06/18 05:23:16;;;;;;;6.72;1.75;;;;;;;13.96;100.00;90776.75;5012118;28;20037;-67
2023/06/18 05:25:41;;;;;;;1.48;1.38;;;;;;;13.92;100.00;90773.19;5012347;28;20116;-68
2023/06/18 05:28:07;;;;;;;1.02;1.00;;;;;;;14.02;100.00;90778.09;5011885;28;20104;-67
2023/06/18 05:30:32;;;;;;;1.00;1.00;;;;;;;14.31;100.00;90781.69;5012007;28;20407;-67
2023/06/18 05:32:57;;;;;;;1.30;1.20;;;;;;;14.21;100.00;90779.47;5011900;28;20040;-67
2023/06/18 05:35:23;;;;;;;2.00;1.90;;;;;;;14.08;100.00;90792.81;5011895;28;20029;-67
2023/06/18 05:37:49;;;;;;;1.70;1.30;;;;;;;14.11;100.00;90790.59;5011903;28;20037;-68
2023/06/18 05:40:14;;;;;;;1.35;1.25;;;;;;;14.23;100.00;90788.72;5011598;28;20499;-68
2023/06/18 05:42:40;;;;;;;6.50;3.10;;;;;;;14.37;100.00;90789.16;5011778;28;20026;-68
2023/06/18 05:45:07;;;;;;;1.88;1.75;;;;;;;14.32;100.00;90796.63;5011951;28;20037;-67
2023/06/18 05:47:32;;;;;;;1.30;1.20;;;;;;;14.43;100.00;90792.41;5011585;28;20030;-71
2023/06/18 05:49:58;;;;;;;1.55;1.45;;;;;;;14.61;100.00;90801.78;5010378;28;20037;-72
2023/06/18 05:52:23;;;;;;;1.40;1.40;;;;;;;14.66;100.00;90801.56;5011665;28;20052;-68
2023/06/18 05:54:48;;;;;;;1.63;1.55;;;;;;;14.90;100.00;90800.75;5010829;28;20431;-67
2023/06/18 05:57:14;;;;;;;1.52;1.42;;;;;;;14.96;100.00;90809.31;5011570;28;20030;-67
2023/06/18 05:59:39;;;;;;;1.42;1.38;;;;;;;15.07;100.00;90807.75;5011633;28;20419;-67
2023/06/18 06:02:05;;;;;;;2.67;2.00;;;;;;;15.10;100.00;90807.06;5010900;28;20046;-68
2023/06/18 06:04:31;;;;;;;2.75;2.55;;;;;;;14.82;100.00;90795.50;5012297;28;20037;-68
2023/06/18 06:06:56;;;;;;;4.10;2.90;;;;;;;14.68;100.00;90806.59;5012423;28;20080;-68
2023/06/18 06:09:22;;;;;;;21.65;19.02;;;;;;;14.74;100.00;90813.28;5027336;28;20030;-69
2023/06/18 06:11:47;;;;;;;21.90;15.50;;;;;;;14.97;100.00;90819.72;5012126;28;20488;-69
2023/06/18 06:14:14;;;;;;;16.15;6.65;;;;;;;15.05;100.00;90817.25;5011969;28;20053;-69
2023/06/18 06:16:39;;;;;;;7.15;6.40;;;;;;;15.08;100.00;90822.72;5012135;28;20034;-67
2023/06/18 06:19:05;;;;;;;3.33;3.05;;;;;;;15.08;100.00;90828.06;5011926;28;20422;-68
2023/06/18 06:21:33;;;;;;;37.95;22.65;;;;;;;15.11;100.00;90826.59;5012245;28;20551;-69
2023/06/18 06:23:59;;;;;;;28.08;14.40;;;;;;;15.19;100.00;90825.72;5012183;28;20034;-67
2023/06/18 06:26:24;;;;;;;18.67;11.93;;;;;;;15.35;100.00;90825.78;5012085;28;20029;-67
2023/06/18 06:28:50;;;;;;;4.10;3.78;;;;;;;15.50;100.00;90825.06;5011923;28;20033;-68
2023/06/18 06:31:15;;;;;;;2.13;1.65;;;;;;;15.25;100.00;90838.53;5011933;28;20029;-66
2023/06/18 06:33:40;;;;;;;2.67;1.40;;;;;;;15.20;100.00;90827.28;5010784;28;20034;-67
2023/06/18 06:36:09;;;;;;;1.38;1.30;;;;;;;15.23;100.00;90832.72;5008452;28;20403;-66
2023/06/18 06:38:35;;;;;;;3.53;2.45;;;;;;;15.30;100.00;90832.13;5011569;28;20034;-65
2023/06/18 06:41:00;;;;;;;2.42;2.33;;;;;;;15.37;100.00;90829.69;5012046;28;20033;-66
2023/06/18 06:43:26;;;;;;;1.50;1.40;;;;;;;15.05;100.00;90825.28;5011661;28;20116;-68
2023/06/18 06:45:51;;;;;;;3.10;2.28;;;;;;;15.09;100.00;90840.34;5011312;28;20041;-68
2023/06/18 06:48:16;;;;;;;2.50;2.35;;;;;;;15.41;100.00;90829.78;5011406;28;20073;-67
2023/06/18 06:50:42;;;;;;;1.50;1.40;;;;;;;15.62;100.00;90830.44;5011482;28;20476;-67
2023/06/18 06:53:07;;;;;;;3.08;2.15;;;;;;;15.69;100.00;90827.16;5011754;28;20038;-76
2023/06/18 06:55:35;;;;;;;2.28;2.17;;;;;;;15.88;100.00;90838.00;5011699;28;20066;-77
2023/06/18 06:58:01;;;;;;;2.25;2.15;;;;;;;15.87;100.00;90847.97;5011502;28;20052;-73
2023/06/18 07:00:26;;;;;;;2.30;2.10;;;;;;;15.74;100.00;90849.13;5011237;28;20491;-71
2023/06/18 07:02:52;;;;;;;8.68;2.67;;;;;;;15.86;100.00;90853.66;5011413;28;20499;-69
2023/06/18 07:05:17;;;;;;;3.60;3.40;;;;;;;15.75;100.00;90857.94;5010641;28;20514;-72
2023/06/18 07:07:43;;;;;;;39.83;19.95;;;;;;;15.56;100.00;90843.25;5015468;28;20467;-75
2023/06/18 07:10:08;;;;;;;8.05;7.25;;;;;;;15.60;100.00;90854.09;5015048;28;20022;-69
2023/06/18 07:12:34;;;;;;;6.90;4.30;;;;;;;15.37;100.00;90861.84;5014997;28;20030;-70
2023/06/18 07:14:59;;;;;;;3.58;3.05;;;;;;;15.33;100.00;90865.56;5014830;28;20033;-67
2023/06/18 07:17:25;;;;;;;2.53;2.33;;;;;;;15.19;100.00;90868.59;5015289;28;20424;-68
2023/06/18 07:19:52;;;;;;;2.72;2.53;;;;;;;14.92;100.00;90870.84;5015385;28;20554;-68
2023/06/18 07:22:18;;;;;;;2.00;1.90;;;;;;;15.00;100.00;90881.78;5014973;28;20033;-68
2023/06/18 07:24:43;;;;;;;2.90;2.70;;;;;;;14.88;100.00;90878.00;5015026;28;20022;-69
2023/06/18 07:27:09;;;;;;;2.83;2.63;;;;;;;14.97;100.00;90881.31;5013490;28;20030;-68
2023/06/18 07:29:35;;;;;;;2.83;2.38;;;;;;;14.95;100.00;90878.19;5014187;28;20037;-72
2023/06/18 07:32:00;;;;;;;27.63;16.75;;;;;;;15.00;100.00;90885.25;5014484;28;20030;-74
2023/06/18 07:34:28;;;;;;;18.95;15.15;;;;;;;14.93;100.00;90880.44;5014612;28;20033;-73
2023/06/18 07:36:54;;;;;;;3.40;3.10;;;;;;;14.82;100.00;90879.31;5014522;28;20113;-70
2023/06/18 07:39:19;;;;;;;3.72;2.05;;;;;;;14.86;100.00;90884.81;5014635;28;20026;-72
2023/06/18 07:41:47;;;;;;;4.28;3.70;;;;;;;14.84;100.00;90889.72;5014570;28;20026;-71
2023/06/18 07:44:15;;;;;;;3.53;2.90;;;;;;;14.76;100.00;90891.38;5012713;28;20484;-72
2023/06/18 07:46:42;;;;;;;2.35;2.25;;;;;;;14.62;100.00;90872.94;5014711;28;20026;-70
2023/06/18 07:49:08;;;;;;;3.92;2.70;;;;;;;14.61;100.00;90884.78;5014524;28;20112;-67
2023/06/18 07:51:34;;;;;;;3.30;2.83;;;;;;;14.75;100.00;90900.53;5014264;28;20029;-69
2023/06/18 07:53:59;;;;;;;3.85;2.72;;;;;;;14.89;100.00;90898.28;5013041;28;20036;-69
2023/06/18 07:56:26;;;;;;;7.75;3.92;;;;;;;15.14;100.00;90900.94;5014356;28;20030;-70
2023/06/18 07:58:52;;;;;;;4.13;3.58;;;;;;;15.10;100.00;90906.22;5013955;28;20026;-69
2023/06/18 08:01:17;;;;;;;8.18;6.57;;;;;;;15.06;100.00;90909.91;5013573;28;20056;-69
2023/06/18 08:03:43;;;;;;;6.75;5.40;;;;;;;15.01;100.00;90904.78;5014241;28;20032;-69
2023/06/18 08:06:08;;;;;;;5.10;4.57;;;;;;;14.91;100.00;90914.03;5013954;28;20037;-69
2023/06/18 08:08:34;;;;;;;3.53;3.30;;;;;;;14.83;100.00;90917.59;5033692;28;20116;-68
2023/06/18 08:11:00;;;;;;;4.85;4.40;;;;;;;14.89;100.00;90913.59;5025383;28;20033;-67
2023/06/18 08:13:25;;;;;;;7.60;4.93;;;;;;;14.91;100.00;90914.81;5012622;28;20503;-66
2023/06/18 08:15:51;;;;;;;7.35;5.38;;;;;;;14.95;100.00;90920.28;5013741;28;20033;-67
2023/06/18 08:18:17;;;;;;;4.97;4.53;;;;;;;15.10;100.00;90927.66;5012851;28;20557;-69
2023/06/18 08:20:43;;;;;;;6.45;4.45;;;;;;;15.22;100.00;90919.59;5013618;28;20030;-68
2023/06/18 08:23:08;;;;;;;3.85;3.22;;;;;;;15.28;100.00;90933.53;5021508;28;20083;-68
2023/06/18 08:25:35;;;;;;;4.75;3.95;;;;;;;15.31;100.00;90935.56;5018709;28;20112;-68
2023/06/18 08:28:01;;;;;;;10.68;6.50;;;;;;;15.31;100.00;90937.47;5013801;28;20034;-68
2023/06/18 08:30:27;;;;;;;5.78;4.55;;;;;;;15.41;100.00;90937.78;5015772;28;20025;-70
2023/06/18 08:32:55;;;;;;;5.03;4.15;;;;;;;15.29;100.00;90941.25;5022588;28;20511;-72
2023/06/18 08:35:22;;;;;;;6.65;5.88;;;;;;;15.32;100.00;90936.34;5021495;28;20033;-73
2023/06/18 08:37:47;;;;;;;5.20;4.80;;;;;;;15.42;100.00;90950.06;5022668;28;20025;-72
2023/06/18 08:40:14;;;;;;;2.17;2.03;;;;;;;15.14;100.00;90944.59;5022784;28;20072;-77
2023/06/18 08:42:40;;;;;;;3.38;2.38;;;;;;;15.02;100.00;90949.97;5020686;28;20039;-75
2023/06/18 08:45:07;;;;;;;2.72;2.50;;;;;;;15.14;100.00;90951.88;5023185;28;20025;-72
2023/06/18 08:47:34;;;;;;;2.53;1.70;;;;;;;15.11;100.00;90949.84;5022231;28;20026;-71
2023/06/18 08:49:59;;;;;;;4.50;2.33;;;;;;;15.27;100.00;90948.06;5023858;28;20400;-73
2023/06/18 08:52:27;;;;;;;3.83;3.45;;;;;;;14.99;100.00;90953.34;5015487;28;20034;-75
2023/06/18 08:55:01;;;;;;;2.78;2.60;;;;;;;15.00;100.00;90951.44;5025672;28;20494;-74
2023/06/18 08:57:42;;;;;;;4.82;4.43;;;;;;;15.16;100.00;90960.38;5029074;28;20061;-72
2023/06/18 09:00:09;;;;;;;4.93;4.53;;;;;;;15.10;100.00;90951.75;5016881;28;20396;-74
2023/06/18 09:02:35;;;;;;;9.05;4.53;;;;;;;15.21;100.00;90949.41;5017936;28;20526;-73
2023/06/18 09:05:04;;;;;;;4.43;2.28;;;;;;;15.09;100.00;90962.81;5023307;28;20030;-73
2023/06/18 09:07:30;;;;;;;2.17;2.08;;;;;;;15.02;100.00;90959.91;5019617;28;20041;-73
2023/06/18 09:09:56;;;;;;;2.42;2.22;;;;;;;15.03;100.00;90974.88;5020143;28;20025;-72
2023/06/18 09:12:21;;;;;;;3.28;1.98;;;;;;;14.91;100.00;90970.28;5018075;28;20034;-72
2023/06/18 09:14:47;;;;;;;2.50;2.30;;;;;;;14.89;100.00;90959.91;5015806;28;20030;-72
2023/06/18 09:17:12;;;;;;;2.25;1.75;;;;;;;15.07;100.00;90959.69;5016154;28;20040;-68
2023/06/18 09:19:39;;;;;;;2.50;2.17;;;;;;;15.22;100.00;90946.41;5012738;28;20080;-70
2023/06/18 09:22:16;;;;;;;3.08;2.38;;;;;;;15.39;100.00;90960.69;5021926;28;20090;-73
2023/06/18 09:24:44;;;;;;;1.58;1.52;;;;;;;15.08;100.00;90951.31;5018474;28;20514;-73
2023/06/18 09:27:11;;;;;;;2.92;2.55;;;;;;;15.39;100.00;90955.31;5020327;28;20027;-75
2023/06/18 09:29:38;;;;;;;3.08;2.88;;;;;;;15.55;100.00;90964.25;5029651;28;20419;-73
2023/06/18 09:32:11;;;;;;;1.85;1.75;;;;;;;15.42;100.00;90966.16;5024359;28;20052;-72
2023/06/18 09:34:39;;;;;;;1.50;1.45;;;;;;;15.05;100.00;90954.66;5022659;28;20474;-70
2023/06/18 09:37:06;;;;;;;2.25;1.83;;;;;;;15.12;100.00;90962.13;5018815;28;20499;-70
2023/06/18 09:39:33;;;;;;;1.67;1.58;;;;;;;15.23;100.00;90965.94;5012220;28;20034;-68
2023/06/18 09:42:06;;;;;;;3.38;1.20;;;;;;;15.15;100.00;90967.63;5012236;28;20048;-70
2023/06/18 09:44:32;;;;;;;1.48;1.38;;;;;;;15.01;100.00;90961.81;5011965;28;20037;-70
2023/06/18 09:46:58;;;;;;;2.28;1.70;;;;;;;14.83;100.00;90976.50;5012519;28;20057;-69
2023/06/18 09:49:25;;;;;;;2.05;1.90;;;;;;;14.73;100.00;90979.63;5012454;28;20041;-68
2023/06/18 09:51:52;;;;;;;2.40;2.30;;;;;;;14.81;100.00;90973.38;5010958;28;20464;-70
2023/06/18 09:54:18;;;;;;;2.45;2.20;;;;;;;15.03;100.00;90970.31;5012067;28;20033;-70
2023/06/18 09:56:57;;;;;;;2.53;2.40;;;;;;;15.10;100.00;90969.72;5012564;28;20041;-68
2023/06/18 09:59:35;;;;;;;4.93;4.43;;;;;;;15.21;100.00;90960.13;5011776;28;20103;-77
2023/06/18 10:02:00;;;;;;;4.45;4.03;;;;;;;15.52;100.00;90975.66;5012031;28;20512;-73
2023/06/18 10:04:27;;;;;;;6.32;5.63;;;;;;;15.58;100.00;90979.66;5012500;28;20101;-69
2023/06/18 10:07:15;;;;;;;8.20;6.65;;;;;;;15.58;100.00;90968.94;5011943;28;20408;-75
2023/06/18 10:09:42;;;;;;;4.30;3.90;;;;;;;15.56;100.00;90976.53;4991214;28;20041;-70
2023/06/18 10:12:08;;;;;;;3.55;3.22;;;;;;;15.48;100.00;90980.91;4992209;28;20026;-70
2023/06/18 10:14:34;;;;;;;6.97;4.88;;;;;;;15.56;100.00;90961.22;4991864;28;20036;-73
2023/06/18 10:17:03;;;;;;;2.72;2.42;;;;;;;15.44;100.00;90974.63;4991242;28;20408;-72
2023/06/18 10:19:47;;;;;;;5.97;3.83;;;;;;;15.39;100.00;90972.19;4992324;28;20057;-72
2023/06/18 10:22:16;;;;;;;2.92;2.58;;;;;;;15.52;100.00;90981.00;4992559;28;20057;-71
2023/06/18 10:24:45;;;;;;;3.35;2.70;;;;;;;15.64;100.00;90967.63;4992617;28;20096;-72
2023/06/18 10:27:12;;;;;;;5.38;4.88;;;;;;;15.54;100.00;90981.44;4992654;28;20022;-70
2023/06/18 10:29:38;;;;;;;3.05;2.80;;;;;;;15.08;100.00;90980.00;4992002;28;20404;-69
2023/06/18 10:32:05;;;;;;;4.80;4.05;;;;;;;14.82;100.00;90958.88;4992362;28;20460;-72
2023/06/18 10:34:32;;;;;;;4.75;3.25;;;;;;;14.97;100.00;90969.72;4991122;28;20133;-72
2023/06/18 10:36:59;;;;;;;7.32;4.97;;;;;;;14.79;100.00;90960.31;4992129;28;20046;-72
2023/06/18 10:39:26;;;;;;;4.85;4.45;;;;;;;14.96;100.00;90964.69;4991855;28;20038;-71
2023/06/18 10:41:53;;;;;;;7.18;4.95;;;;;;;15.03;100.00;90972.19;4995241;28;20027;-71
2023/06/18 10:44:48;;;;;;;4.70;2.83;;;;;;;14.91;100.00;90967.59;4995527;28;20480;-72
2023/06/18 10:47:17;;;;;;;2.13;1.95;;;;;;;14.75;100.00;90966.69;4995758;28;20033;-69
2023/06/18 10:50:03;;;;;;;2.60;2.40;;;;;;;14.73;100.00;90972.38;4995611;28;20052;-69
2023/06/18 10:52:31;;;;;;;2.53;2.33;;;;;;;14.87;100.00;90967.50;4995757;28;20027;-66
2023/06/18 10:55:15;;;;;;;4.82;2.95;;;;;;;15.05;100.00;90973.41;4995966;28;20034;-67
2023/06/18 10:57:43;;;;;;;2.08;1.88;;;;;;;15.07;100.00;90976.53;4995377;28;20076;-67
2023/06/18 11:00:17;;;;;;;2.38;2.22;;;;;;;15.20;100.00;90975.44;4995433;28;20469;-67
2023/06/18 11:02:44;;;;;;;4.38;2.25;;;;;;;15.31;100.00;90977.69;4995657;28;20081;-67
2023/06/18 11:05:34;;;;;;;1.70;1.63;;;;;;;15.74;100.00;90972.50;4996117;28;20058;-67
2023/06/18 11:08:07;;;;;;;1.85;1.75;;;;;;;15.77;100.00;90965.69;5011744;28;20053;-68
2023/06/18 11:10:39;;;;;;;3.65;1.75;;;;;;;16.03;100.00;90965.28;5025370;28;20084;-67
2023/06/18 11:13:07;;;;;;;3.15;2.40;;;;;;;16.13;100.00;90964.81;5022452;28;20034;-68
2023/06/18 11:15:58;;;;;;;1.90;1.80;;;;;;;16.47;100.00;90960.75;5022315;28;20574;-68
2023/06/18 11:18:28;;;;;;;1.92;1.83;;;;;;;16.88;100.00;90967.59;4995503;28;20106;-68
2023/06/18 11:20:55;;;;;;;1.58;1.48;;;;;;;17.09;100.00;90963.91;4995537;28;20029;-67
2023/06/18 11:23:22;;;;;;;1.83;1.50;;;;;;;17.71;100.00;90970.38;4995627;28;20049;-67